createdAt,value
2018-05-12T10:13:57.284Z,41.76
2018-05-12T10:16:24.919Z,43.22
2018-05-12T10:18:52.533Z,43.59
2018-05-12T10:21:20.346Z,45.80
2018-05-12T10:23:48.213Z,45.47
2018-05-12T10:26:15.837Z,45.83
2018-05-12T10:28:43.867Z,46.06
2018-05-12T10:31:11.614Z,43.87
2018-05-12T10:33:39.237Z,43.67
2018-05-12T10:36:07.445Z,44.37
2018-05-12T10:38:36.458Z,46.22
2018-05-12T10:41:04.074Z,46.87
2018-05-12T10:43:31.675Z,47.16
2018-05-12T10:45:59.435Z,45.23
2018-05-12T10:48:27.124Z,46.61
2018-05-12T10:50:54.692Z,45.43
2018-05-12T10:53:23.646Z,44.92
2018-05-12T10:55:51.393Z,43.95
2018-05-12T10:58:19.202Z,43.27
2018-05-12T11:00:46.823Z,42.05
2018-05-12T11:03:14.433Z,40.91
2018-05-12T11:05:42.300Z,39.05
2018-05-12T11:08:10.556Z,40.71
2018-05-12T11:10:38.165Z,42.07
2018-05-12T11:13:05.781Z,42.50
2018-05-12T11:15:33.955Z,43.92
2018-05-12T11:18:01.528Z,40.88
2018-05-12T11:20:29.333Z,41.16
2018-05-12T11:22:56.915Z,39.59
2018-05-12T11:25:25.568Z,40.16
2018-05-12T11:27:54.978Z,42.19
2018-05-12T11:30:22.851Z,41.94
2018-05-12T11:32:50.633Z,42.14
2018-05-12T11:35:18.238Z,41.16
2018-05-12T11:37:46.185Z,40.97
2018-05-12T11:40:14.538Z,39.54
2018-05-12T11:42:42.136Z,38.49
2018-05-12T11:45:09.765Z,39.79
2018-05-12T11:47:37.397Z,38.58
2018-05-12T11:50:05.273Z,38.45
2018-05-12T11:52:33.313Z,37.23
2018-05-12T11:55:00.903Z,37.69
2018-05-12T11:57:28.512Z,39.39
2018-05-12T11:59:56.519Z,39.76
2018-05-12T12:02:24.206Z,40.04
2018-05-12T12:04:51.778Z,39.13
2018-05-12T12:07:19.396Z,40.38
2018-05-12T12:09:47.025Z,38.03
2018-05-12T12:12:14.701Z,39.40
2018-05-12T12:14:42.320Z,38.09
2018-05-12T12:17:10.960Z,39.17
2018-05-12T12:19:38.710Z,39.44
2018-05-12T12:22:06.317Z,39.22
2018-05-12T12:24:34.300Z,38.86
2018-05-12T12:27:03.448Z,38.83
2018-05-12T12:29:31.313Z,37.26
2018-05-12T12:32:00.273Z,36.65
2018-05-12T12:34:27.851Z,37.37
2018-05-12T12:36:57.478Z,37.57
2018-05-12T12:39:26.880Z,38.63
2018-05-12T12:41:54.499Z,38.37
2018-05-12T12:44:22.074Z,39.50
2018-05-12T12:46:49.677Z,36.92
2018-05-12T12:49:17.344Z,37.91
2018-05-12T12:51:46.389Z,36.78
2018-05-12T12:54:15.509Z,38.22
2018-05-12T12:56:43.119Z,37.86
2018-05-12T12:59:10.725Z,36.92
2018-05-12T13:01:38.353Z,37.22
2018-05-12T13:04:07.612Z,37.30
2018-05-12T13:06:35.931Z,39.03
2018-05-12T13:09:03.553Z,38.78
2018-05-12T13:11:32.739Z,38.12
2018-05-12T13:14:00.397Z,38.72
2018-05-12T13:16:27.981Z,40.94
2018-05-12T13:18:55.601Z,38.14
2018-05-12T13:21:23.178Z,39.03
2018-05-12T13:23:55.182Z,39.15
2018-05-12T13:26:22.862Z,41.65
2018-05-12T13:28:50.471Z,39.90
2018-05-12T13:31:18.113Z,41.66
2018-05-12T13:33:45.737Z,39.44
2018-05-12T13:36:13.313Z,39.14
2018-05-12T13:38:40.928Z,39.68
2018-05-12T13:41:08.501Z,38.45
2018-05-12T13:43:36.126Z,39.66
2018-05-12T13:46:03.757Z,39.23
2018-05-12T13:48:31.345Z,38.79
2018-05-12T13:51:03.719Z,40.17
2018-05-12T13:53:31.617Z,41.25
2018-05-12T13:55:59.244Z,40.10
2018-05-12T13:58:27.445Z,41.04
2018-05-12T14:00:55.052Z,39.49
2018-05-12T14:03:23.089Z,39.70
2018-05-12T14:05:50.754Z,37.84
2018-05-12T14:08:18.368Z,38.95
2018-05-12T14:10:45.953Z,38.79
2018-05-12T14:13:13.723Z,39.01
2018-05-12T14:15:41.666Z,40.90
2018-05-12T14:18:09.628Z,40.85
2018-05-12T14:20:37.329Z,40.25
2018-05-12T14:23:04.982Z,40.41
2018-05-12T14:25:32.561Z,40.89
2018-05-12T14:28:00.169Z,39.71
2018-05-12T14:30:27.814Z,40.88
2018-05-12T14:32:55.531Z,38.60
2018-05-12T14:35:23.096Z,38.34
2018-05-12T14:37:50.721Z,40.54
2018-05-12T14:40:18.327Z,38.45
2018-05-12T14:42:45.988Z,38.96
2018-05-12T14:45:13.618Z,39.11
2018-05-12T14:47:41.260Z,39.18
2018-05-12T14:50:08.889Z,39.06
2018-05-12T14:52:36.502Z,39.48
2018-05-12T14:55:04.486Z,39.64
2018-05-12T14:57:32.544Z,40.45
2018-05-12T15:00:00.130Z,38.95
2018-05-12T15:02:28.378Z,40.80
2018-05-12T15:04:55.997Z,39.61
2018-05-12T15:07:24.212Z,41.05
2018-05-12T15:09:51.970Z,39.79
2018-05-12T15:12:19.718Z,39.76
2018-05-12T15:14:47.381Z,41.12
2018-05-12T15:17:16.513Z,40.59
2018-05-12T15:19:44.141Z,40.72
2018-05-12T15:22:12.927Z,40.57
2018-05-12T15:24:41.630Z,39.29
2018-05-12T15:27:09.234Z,39.71
2018-05-12T15:29:36.806Z,40.71
2018-05-12T15:32:04.910Z,40.14
2018-05-12T15:34:32.524Z,40.63
2018-05-12T15:37:01.122Z,42.20
2018-05-12T15:39:29.320Z,42.30
2018-05-12T15:41:56.937Z,44.41
2018-05-12T15:44:24.853Z,45.48
2018-05-12T15:46:52.718Z,45.93
2018-05-12T15:49:20.480Z,47.77
2018-05-12T15:51:48.474Z,48.51
2018-05-12T15:54:16.126Z,48.82
2018-05-12T15:56:44.944Z,49.10
2018-05-12T15:59:14.236Z,49.49
2018-05-12T16:01:42.049Z,49.26
2018-05-12T16:04:10.304Z,49.36
2018-05-12T16:06:38.714Z,48.81
2018-05-12T16:09:06.845Z,49.28
2018-05-12T16:11:35.019Z,50.17
2018-05-12T16:14:02.989Z,50.69
2018-05-12T16:16:30.788Z,51.52
2018-05-12T16:18:58.409Z,51.65
2018-05-12T16:21:26.576Z,52.68
2018-05-12T16:23:54.386Z,53.30
2018-05-12T16:26:23.231Z,53.78
2018-05-12T16:28:51.141Z,53.63
2018-05-12T16:31:18.946Z,54.21
2018-05-12T16:33:46.573Z,53.53
2018-05-12T16:36:14.166Z,53.25
2018-05-12T16:38:41.909Z,52.95
2018-05-12T16:41:10.064Z,52.93
2018-05-12T16:43:39.094Z,53.91
2018-05-12T16:46:07.098Z,54.35
2018-05-12T16:48:34.687Z,54.04
2018-05-12T16:51:02.622Z,53.51
2018-05-12T16:53:30.222Z,54.23
2018-05-12T16:55:58.380Z,54.36
2018-05-12T16:58:25.968Z,54.79
2018-05-12T17:00:53.589Z,55.00
2018-05-12T17:03:21.805Z,55.07
2018-05-12T17:05:49.376Z,55.46
2018-05-12T17:08:17.007Z,55.92
2018-05-12T17:10:44.578Z,56.16
2018-05-12T17:13:12.229Z,56.28
2018-05-12T17:15:39.808Z,56.52
2018-05-12T17:18:07.415Z,56.98
2018-05-12T17:20:35.029Z,57.27
2018-05-12T17:23:02.927Z,57.51
2018-05-12T17:25:30.497Z,56.89
2018-05-12T17:27:58.117Z,57.27
2018-05-12T17:30:25.708Z,57.30
2018-05-12T17:32:53.291Z,56.37
2018-05-12T17:35:20.911Z,56.82
2018-05-12T17:37:48.555Z,56.63
2018-05-12T17:40:16.185Z,57.42
2018-05-12T17:42:45.170Z,57.76
2018-05-12T17:45:13.464Z,57.29
2018-05-12T17:47:41.103Z,57.64
2018-05-12T17:50:08.818Z,57.47
2018-05-12T17:52:36.385Z,57.69
2018-05-12T17:55:04.924Z,57.79
2018-05-12T17:57:33.372Z,57.67
2018-05-12T18:00:01.573Z,57.85
2018-05-12T18:02:30.557Z,58.24
2018-05-12T18:04:58.140Z,58.76
2018-05-12T18:07:25.749Z,58.89
2018-05-12T18:09:53.332Z,59.40
2018-05-12T18:12:21.486Z,59.23
2018-05-12T18:14:49.164Z,59.38
2018-05-12T18:17:16.828Z,59.72
2018-05-12T18:19:44.433Z,60.29
2018-05-12T18:22:12.048Z,59.66
2018-05-12T18:24:39.663Z,60.42
2018-05-12T18:27:07.286Z,60.37
2018-05-12T18:29:34.859Z,60.64
2018-05-12T18:32:03.268Z,60.73
2018-05-12T18:34:31.140Z,61.06
2018-05-12T18:36:59.629Z,61.03
2018-05-12T18:39:27.473Z,61.28
2018-05-12T18:41:55.058Z,61.36
2018-05-12T18:44:22.829Z,61.64
2018-05-12T18:46:50.755Z,61.50
2018-05-12T18:49:18.368Z,62.28
2018-05-12T18:51:45.997Z,62.28
2018-05-12T18:54:13.623Z,62.69
2018-05-12T18:56:41.332Z,63.34
2018-05-12T18:59:08.925Z,62.93
2018-05-12T19:01:36.736Z,62.64
2018-05-12T19:04:04.942Z,63.00
2018-05-12T19:06:32.567Z,63.11
2018-05-12T19:09:00.195Z,63.26
2018-05-12T19:11:27.782Z,64.23
2018-05-12T19:13:55.417Z,64.19
2018-05-12T19:16:23.020Z,64.53
2018-05-12T19:18:50.655Z,64.69
2018-05-12T19:21:18.237Z,65.05
2018-05-12T19:23:46.193Z,64.92
2018-05-12T19:26:13.816Z,65.10
2018-05-12T19:28:41.393Z,65.31
2018-05-12T19:31:09.065Z,65.81
2018-05-12T19:33:36.641Z,65.88
2018-05-12T19:36:04.283Z,66.14
2018-05-12T19:38:31.888Z,66.04
2018-05-12T19:40:59.512Z,66.22
2018-05-12T19:43:27.322Z,66.56
2018-05-12T19:45:54.904Z,67.21
2018-05-12T19:48:22.529Z,66.95
2018-05-12T19:50:50.564Z,67.30
2018-05-12T19:53:18.145Z,67.43
2018-05-12T19:55:45.725Z,67.42
2018-05-12T19:58:13.950Z,67.75
2018-05-12T20:00:41.536Z,68.13
2018-05-12T20:03:09.156Z,68.12
2018-05-12T20:05:36.775Z,68.47
2018-05-12T20:08:04.365Z,68.59
2018-05-12T20:10:31.980Z,68.92
2018-05-12T20:12:59.618Z,69.06
2018-05-12T20:15:27.193Z,69.48
2018-05-12T20:17:54.776Z,69.68
2018-05-12T20:20:22.407Z,69.98
2018-05-12T20:22:49.985Z,69.96
2018-05-12T20:25:17.584Z,70.07
2018-05-12T20:27:45.201Z,70.57
2018-05-12T20:30:12.800Z,70.65
2018-05-12T20:32:40.433Z,70.72
2018-05-12T20:35:08.008Z,70.89
2018-05-12T20:37:35.642Z,71.17
2018-05-12T20:40:03.280Z,71.30
2018-05-12T20:42:30.904Z,71.66
2018-05-12T20:44:58.521Z,71.97
2018-05-12T20:47:26.106Z,71.90
2018-05-12T20:49:53.758Z,72.10
2018-05-12T20:52:21.348Z,72.66
2018-05-12T20:54:48.989Z,72.60
2018-05-12T20:57:16.609Z,73.04
2018-05-12T20:59:44.239Z,73.06
2018-05-12T21:02:11.826Z,73.44
2018-05-12T21:04:39.447Z,73.28
2018-05-12T21:07:07.537Z,73.52
2018-05-12T21:09:35.164Z,73.36
2018-05-12T21:12:02.928Z,73.47
2018-05-12T21:14:30.568Z,73.43
2018-05-12T21:16:58.151Z,73.52
2018-05-12T21:19:25.926Z,73.41
2018-05-12T21:21:53.536Z,73.43
2018-05-12T21:24:21.130Z,73.47
2018-05-12T21:26:48.745Z,73.65
2018-05-12T21:29:16.492Z,73.66
2018-05-12T21:31:44.077Z,74.11
2018-05-12T21:34:11.657Z,74.24
2018-05-12T21:36:39.535Z,74.26
2018-05-12T21:39:07.125Z,74.05
2018-05-12T21:41:34.700Z,74.24
2018-05-12T21:44:02.314Z,74.04
2018-05-12T21:46:29.928Z,74.20
2018-05-12T21:48:57.512Z,74.13
2018-05-12T21:51:25.464Z,74.21
2018-05-12T21:53:53.073Z,74.09
2018-05-12T21:56:20.689Z,73.88
2018-05-12T21:58:48.276Z,73.49
2018-05-12T22:01:16.241Z,73.31
2018-05-12T22:03:44.390Z,73.07
2018-05-12T22:06:12.276Z,72.83
2018-05-12T22:08:39.904Z,72.70
2018-05-12T22:11:07.485Z,72.70
2018-05-12T22:13:35.097Z,72.75
2018-05-12T22:16:02.687Z,72.89
2018-05-12T22:18:30.336Z,72.86
2018-05-12T22:20:58.454Z,72.97
2018-05-12T22:23:26.073Z,73.24
2018-05-12T22:25:53.655Z,73.21
2018-05-12T22:28:21.261Z,73.40
2018-05-12T22:30:48.841Z,73.31
2018-05-12T22:33:16.453Z,73.40
2018-05-12T22:35:44.068Z,73.38
2018-05-12T22:38:12.289Z,73.22
2018-05-12T22:40:39.949Z,73.42
2018-05-12T22:43:07.536Z,73.29
2018-05-12T22:45:35.158Z,73.10
2018-05-12T22:48:02.733Z,73.05
2018-05-12T22:50:30.349Z,73.04
2018-05-12T22:52:58.415Z,73.10
2018-05-12T22:55:26.029Z,73.27
2018-05-12T22:57:53.836Z,73.54
2018-05-12T23:00:37.258Z,73.65
2018-05-12T23:03:04.841Z,73.94
2018-05-12T23:05:32.461Z,74.09
2018-05-12T23:08:00.037Z,74.07
2018-05-12T23:10:27.659Z,74.31
2018-05-12T23:12:55.242Z,74.29
2018-05-12T23:15:22.861Z,74.33
2018-05-12T23:17:50.718Z,74.44
2018-05-12T23:20:18.341Z,74.50
2018-05-12T23:22:47.809Z,74.73
2018-05-12T23:25:15.385Z,75.09
2018-05-12T23:27:43.015Z,75.39
2018-05-12T23:30:10.605Z,75.42
2018-05-12T23:32:38.221Z,75.48
2018-05-12T23:35:05.801Z,75.59
2018-05-12T23:37:33.418Z,75.81
2018-05-12T23:40:01.038Z,75.80
2018-05-12T23:42:29.300Z,75.85
2018-05-12T23:44:56.885Z,75.99
2018-05-12T23:47:24.500Z,75.99
2018-05-12T23:49:52.318Z,76.01
2018-05-12T23:52:19.933Z,76.20
2018-05-12T23:54:47.517Z,76.44
2018-05-12T23:57:15.134Z,76.83
2018-05-12T23:59:43.091Z,76.88
